Latest Weather Observations for Tasman Island

IDT60901

Issued at 2:41 am EDT Saturday 29 February 2020 (issued every 10 minutes, with the page automatically refreshed every 10 minutes)

About weather observations | Map of Hobart area stations | Latest observations for Hobart area | Other Formats
Station Details ID: 094155 Name: TASMAN ISLAND Lat: -43.24 Lon: 148.00 Height: 240.0 m
Data from the previous 72 hours. | See also: Recent months at Tasman Island
Date/Time
EDT
Temp
°C
App
Temp
°C
Dew
Point
°C
Rel
Hum
%
Delta-T
°C
Wind Press
QNH
hPa
Press
MSL
hPa
Rain since
9am
mm
Dir  Spd
km/h
Gust
km/h
Spd
kts
Gust
kts
29/02:30am 12.5 7.4 7.8 73 2.3 NNW 24 35 13 19 1008.2 1007.9 0.0
29/02:00am 12.8 8.1 7.7 71 2.5 NNW 22 39 12 21 1008.5 1008.2 0.0
29/01:30am 12.8 6.1 7.5 70 2.6 NW 32 43 17 23 1008.8 1008.5 0.0
29/01:00am 13.8 7.0 7.6 66 3.1 WNW 33 44 18 24 1008.8 1008.5 0.0
29/12:30am 13.0 7.4 7.2 68 2.8 NW 26 37 14 20 1009.0 1008.7 0.0
29/12:00am 12.4 8.8 6.7 68 2.8 NNW 15 22 8 12 1009.4 1009.1 0.0
 
Date/Time
EDT
Temp
°C
App
Temp
°C
Dew
Point
°C
Rel
Hum
%
Delta-T
°C
Wind Press
QNH
hPa
Press
MSL
hPa
Rain since
9am
mm
Dir  Spd
km/h
Gust
km/h
Spd
kts
Gust
kts
28/11:30pm 12.4 9.1 6.5 67 2.8 NNW 13 20 7 11 1009.6 1009.3 0.0
28/11:00pm 12.4 9.5 6.5 67 2.8 NNW 11 19 6 10 1009.6 1009.3 0.0
28/10:30pm 12.5 10.0 6.5 67 2.9 NNW 9 13 5 7 1009.7 1009.4 0.0
28/10:00pm 13.3 10.1 8.6 73 2.4 N 15 20 8 11 1010.1 1009.7 0.0
28/09:30pm 13.1 9.3 9.2 77 2.0 N 19 22 10 12 1010.4 1010.0 0.0
28/09:00pm 13.3 9.5 5.9 61 3.6 NNW 15 22 8 12 1010.1 1009.7 0.0
28/08:30pm 13.6 9.6 6.5 62 3.5 WNW 17 26 9 14 1009.5 1009.2 0.0
28/08:00pm 13.7 10.0 6.3 61 3.6 NW 15 26 8 14 1009.0 1008.7 0.0
28/07:30pm 13.7 11.9 7.2 65 3.2 ENE 6 17 3 9 1008.8 1008.5 0.0
28/07:00pm 14.0 11.5 6.4 60 3.7 N 9 35 5 19 1008.5 1008.2 0.0
28/06:30pm 15.0 12.9 6.6 57 4.1 WNW 7 24 4 13 1008.5 1008.2 0.0
28/06:00pm 15.5 13.5 7.0 57 4.2 NE 7 28 4 15 1008.4 1008.1 0.0
28/05:30pm 15.2 13.0 6.0 54 4.5 WSW 7 22 4 12 1008.0 1007.7 0.0
28/05:00pm 15.4 13.3 5.9 53 4.6 ENE 6 20 3 11 1007.9 1007.6 0.0
28/04:30pm 14.4 12.1 5.7 56 4.2 W 7 19 4 10 1007.9 1007.6 0.0
28/04:00pm 14.1 11.9 5.2 55 4.2 WNW 6 19 3 10 1007.9 1007.6 0.0
28/03:30pm 15.1 12.8 5.9 54 4.5 WSW 7 20 4 11 1007.8 1007.5 0.0
28/03:00pm 14.1 12.0 5.7 57 4.0 NNW 6 19 3 10 1007.9 1007.6 0.0
28/02:30pm 15.1 12.8 7.6 61 3.8 W 9 26 5 14 1008.0 1007.7 0.0
28/02:00pm 13.1 9.2 5.5 60 3.6 W 15 30 8 16 1008.0 1007.7 0.0
28/01:30pm 12.4 9.1 6.5 67 2.8 WSW 13 28 7 15 1008.0 1007.7 0.0
28/01:00pm 12.5 8.3 5.7 63 3.2 W 17 35 9 19 1007.9 1007.6 0.0
28/12:30pm 12.8 9.4 5.9 63 3.3 NW 13 39 7 21 1007.7 1007.4 0.0
28/12:00pm 11.6 8.4 5.0 64 3.1 NW 11 44 6 24 1007.6 1007.3 0.0
28/11:30am 11.8 7.9 5.4 65 3.0 NW 15 50 8 27 1007.1 1006.7 0.0
28/11:00am 11.3 8.5 5.2 66 2.8 NW 9 30 5 16 1006.8 1006.4 0.0
28/10:30am 11.1 7.9 5.0 66 2.8 W 11 37 6 20 1006.4 1006.0 0.0
28/10:00am 10.2 6.9 4.6 68 2.6 NW 11 35 6 19 1006.3 1005.9 0.0
28/09:30am 9.5 6.1 4.1 69 2.4 N 11 30 6 16 1005.9 1005.5 0.0
28/09:00am 9.8 5.6 4.0 67 2.6 WNW 15 46 8 25 1005.2 1004.9 4.8
28/08:30am 9.5 4.9 3.5 66 2.6 W 17 50 9 27 1004.7 1004.4 4.8
28/08:00am 9.1 5.6 3.5 68 2.5 NNW 11 39 6 21 1004.2 1003.9 4.8
28/07:30am 8.7 4.9 3.9 72 2.1 NNW 13 46 7 25 1003.5 1003.1 4.8
28/07:00am 8.4 5.5 4.6 77 1.7 NE 9 24 5 13 1003.2 1002.8 4.8
28/06:30am 8.2 5.2 4.2 76 1.8 SE 9 30 5 16 1002.5 1002.1 4.8
28/06:00am 8.4 5.0 4.2 75 1.9 NW 11 33 6 18 1002.0 1001.6 4.8
28/05:30am 8.5 3.9 3.6 71 2.1 NW 17 56 9 30 1001.6 1001.2 4.8
28/05:00am 8.4 4.3 4.4 76 1.8 W 15 41 8 22 1001.2 1000.9 4.8
28/04:30am 8.0 4.4 4.8 80 1.4 NNW 13 39 7 21 1000.9 1000.6 4.8
28/04:00am 7.7 3.4 5.2 84 1.1 WNW 17 52 9 28 1000.6 1000.3 4.6
28/03:47am 7.2 1.2 5.3 88 0.9 SW 26 74 14 40 1000.4 1000.1 4.0
28/03:41am 7.5 1.9 5.5 87 0.9 SSW 24 63 13 34 1000.5 1000.2 3.6
28/03:38am 7.3 1.5 4.6 83 1.2 SW 24 63 13 34 1000.6 1000.3 3.2
28/03:30am 9.0 4.2 4.4 73 2.1 WNW 19 50 10 27 1000.1 999.7 2.6
28/03:27am 9.0 3.5 4.0 71 2.2 W 22 52 12 28 1000.0 999.6 2.6
28/03:08am 8.8 0.8 3.6 70 2.3 WSW 35 83 19 45 999.3 998.9 2.6
28/03:04am 8.6 2.0 4.4 75 1.9 SW 28 72 15 39 999.4 999.0 2.6
28/03:02am 8.7 3.3 4.7 76 1.8 SW 22 72 12 39 999.4 999.0 2.6
28/03:00am 9.3 4.6 5.1 75 1.9 SW 19 57 10 31 999.3 998.9 2.6
28/02:30am 8.5 3.5 4.5 76 1.8 NW 20 65 11 35 999.5 999.1 2.6
28/02:00am 8.4 3.5 5.2 80 1.5 W 20 63 11 34 999.2 998.8 2.6
28/01:30am 8.4 4.9 5.5 82 1.3 NNW 13 39 7 21 998.9 998.5 2.6
28/01:00am 9.0 5.6 4.2 72 2.2 NNW 11 48 6 26 998.7 998.3 2.4
28/12:30am 8.6 5.1 5.4 80 1.5 NNE 13 37 7 20 998.5 998.1 2.0
28/12:00am 9.4 5.0 5.0 74 2.0 NW 17 46 9 25 998.1 997.7 1.8
 
Date/Time
EDT
Temp
°C
App
Temp
°C
Dew
Point
°C
Rel
Hum
%
Delta-T
°C
Wind Press
QNH
hPa
Press
MSL
hPa
Rain since
9am
mm
Dir  Spd
km/h
Gust
km/h
Spd
kts
Gust
kts
27/11:30pm 9.2 5.9 4.4 72 2.2 N 11 30 6 16 997.9 997.5 1.8
27/11:00pm 9.3 5.3 4.7 73 2.1 NW 15 61 8 33 997.4 997.0 1.8
27/10:30pm 9.1 5.6 5.3 77 1.7 W 13 46 7 25 997.6 997.2 1.8
27/10:00pm 8.9 5.9 5.8 81 1.4 N 11 32 6 17 998.0 997.6 1.6
27/09:30pm 9.9 6.0 5.5 74 2.0 NNW 15 48 8 26 997.5 997.1 0.8
27/09:00pm 10.5 5.9 3.8 63 3.0 W 17 59 9 32 996.7 996.4 0.6
27/08:30pm 10.9 7.1 4.1 63 3.1 NNW 13 43 7 23 996.9 996.6 0.6
27/08:00pm 10.9 7.2 6.3 73 2.2 NNW 15 39 8 21 996.7 996.4 0.6
27/07:30pm 12.2 8.4 5.6 64 3.1 NNE 15 46 8 25 996.1 995.7 0.6
27/07:00pm 12.1 8.9 5.3 63 3.2 E 11 30 6 16 995.7 995.3 0.6
27/06:30pm 12.5 9.6 6.5 67 2.9 N 11 39 6 21 995.7 995.3 0.6
27/06:00pm 13.3 8.5 5.7 60 3.7 NNW 20 59 11 32 995.3 994.9 0.6
27/05:30pm 12.7 9.2 7.4 70 2.6 WNW 15 46 8 25 995.6 995.2 0.6
27/05:00pm 12.9 8.0 6.9 67 3.0 WSW 22 54 12 29 995.1 994.7 0.6
27/04:30pm 13.8 10.0 7.6 66 3.1 W 17 46 9 25 995.3 994.9 0.6
27/04:00pm 14.1 10.9 8.3 68 3.0 SW 15 43 8 23 995.0 994.6 0.6
27/03:30pm 12.9 10.1 9.9 82 1.6 W 15 35 8 19 995.5 995.1 0.6
27/03:00pm 12.0 9.6 10.2 89 0.9 W 13 33 7 18 995.6 995.2 0.6
27/02:30pm 14.6 11.4 8.5 67 3.1 WSW 15 50 8 27 995.4 995.0 0.0
27/02:00pm 14.7 11.2 8.9 68 3.0 W 17 52 9 28 995.4 995.0 0.0
27/01:30pm 14.2 11.5 9.0 71 2.7 W 13 37 7 20 995.6 995.2 0.0
27/01:06pm 14.7 10.5 7.5 62 3.6 NW 19 54 10 29 995.8 995.4 0.0
27/01:00pm 14.9 9.3 7.2 60 3.9 WNW 26 57 14 31 995.8 995.4 0.0
27/12:30pm 14.9 7.5 6.7 58 4.0 NW 35 59 19 32 995.9 995.5 0.0
27/12:00pm 15.0 5.5 6.8 58 4.1 NW 46 74 25 40 995.7 995.3 0.0
27/11:31am 15.2 6.6 6.7 57 4.2 WNW 41 59 22 32 996.2 995.8 0.0
27/11:30am 15.0 6.4 6.6 57 4.1 NW 41 57 22 31 996.1 995.7 0.0
27/11:08am 14.3 7.2 6.2 58 3.9 NW 33 57 18 31 996.6 996.3 0.0
27/11:00am 14.2 7.1 6.3 59 3.9 NW 33 48 18 26 996.6 996.3 0.0
27/10:42am 14.2 8.1 6.8 61 3.6 NW 28 48 15 26 996.9 996.6 0.0
27/10:30am 14.0 7.2 6.8 62 3.5 NNW 32 48 17 26 997.2 996.8 0.0
27/10:03am 14.1 7.0 6.2 59 3.8 NW 33 52 18 28 997.3 996.9 0.0
27/10:00am 13.7 6.2 6.3 61 3.6 NW 35 48 19 26 997.4 997.0 0.0
27/09:30am 12.4 4.8 5.8 64 3.1 NW 35 50 19 27 997.8 997.4 0.0
27/09:00am 12.2 4.5 5.4 63 3.2 NW 35 50 19 27 998.1 997.7 1.4
27/08:30am 11.7 4.0 5.3 65 3.0 NW 35 54 19 29 998.1 997.7 1.4
27/08:00am 11.4 2.4 4.8 64 3.1 NW 41 57 22 31 997.9 997.5 1.4
27/07:30am 11.4 3.1 4.4 62 3.2 NW 37 57 20 31 998.1 997.7 1.4
27/07:08am 11.4 2.0 4.2 61 3.3 NW 43 61 23 33 998.1 997.7 1.4
27/07:00am 11.4 1.4 4.2 61 3.3 NW 46 61 25 33 998.1 997.7 1.4
27/06:33am 11.0 1.0 4.2 63 3.1 NW 46 67 25 36 997.9 997.5 1.4
27/06:30am 11.0 0.6 4.2 63 3.1 NW 48 67 26 36 997.8 997.4 1.4
27/06:06am 10.4 2.2 4.8 68 2.6 NW 37 56 20 30 997.8 997.4 1.4
27/06:00am 10.1 2.3 4.9 70 2.4 NW 35 50 19 27 998.1 997.7 1.4
27/05:32am 9.7 2.5 4.9 72 2.2 NW 32 52 17 28 998.8 998.4 1.4
27/05:30am 9.7 2.9 4.9 72 2.2 NW 30 41 16 22 998.9 998.5 1.4
27/05:01am 9.6 0.7 5.0 73 2.1 NW 41 61 22 33 999.1 998.7 1.4
27/05:00am 9.6 0.3 5.0 73 2.1 NW 43 61 23 33 999.1 998.7 1.4
27/04:52am 9.6 0.6 4.8 72 2.2 NW 41 61 22 33 999.2 998.8 1.4
27/04:30am 9.6 2.1 4.2 69 2.4 NW 33 46 18 25 999.5 999.1 1.4
27/04:00am 9.1 1.3 4.7 74 2.0 WNW 35 59 19 32 1000.0 999.6 1.4
27/03:52am 9.4 2.4 4.2 70 2.3 NW 30 54 16 29 1000.2 999.9 1.4
27/03:30am 9.7 2.6 3.7 66 2.7 NW 30 43 16 23 1000.4 1000.1 1.4
27/03:00am 9.4 3.0 3.4 66 2.7 NW 26 39 14 21 1000.6 1000.3 1.4
27/02:30am 9.3 1.6 3.5 67 2.5 WNW 33 56 18 30 1000.8 1000.5 1.4
27/02:27am 9.2 1.7 3.6 68 2.5 NW 32 56 17 30 1000.8 1000.5 1.4
27/02:00am 9.7 1.6 3.0 63 2.9 NW 35 50 19 27 1001.5 1001.1 1.4
27/01:30am 10.2 2.4 2.6 59 3.3 NW 33 54 18 29 1002.0 1001.6 1.4
27/01:28am 9.9 2.3 2.7 61 3.1 NW 32 54 17 29 1002.0 1001.6 1.4
27/01:00am 9.3 2.9 3.1 65 2.7 NW 26 37 14 20 1002.6 1002.2 1.4
27/12:30am 9.7 1.5 2.6 61 3.1 NW 35 54 19 29 1002.7 1002.3 1.4
27/12:24am 9.6 2.3 2.5 61 3.1 WNW 30 50 16 27 1002.7 1002.3 1.4
27/12:00am 9.7 1.0 2.1 59 3.3 WNW 37 54 20 29 1003.0 1002.6 1.4
 
Date/Time
EDT
Temp
°C
App
Temp
°C
Dew
Point
°C
Rel
Hum
%
Delta-T
°C
Wind Press
QNH
hPa
Press
MSL
hPa
Rain since
9am
mm
Dir  Spd
km/h
Gust
km/h
Spd
kts
Gust
kts
26/11:31pm 9.9 3.1 3.0 62 3.0 WNW 28 48 15 26 1003.5 1003.1 1.4
26/11:30pm 9.8 2.5 2.6 61 3.1 WNW 30 46 16 25 1003.5 1003.1 1.4
26/11:00pm 9.8 2.6 2.9 62 3.0 WNW 30 50 16 27 1003.6 1003.2 1.4
26/10:45pm 9.9 3.1 3.0 62 3.0 NW 28 50 15 27 1003.7 1003.3 1.4
26/10:30pm 9.7 3.7 3.2 64 2.8 WNW 24 43 13 23 1003.9 1003.6 1.4
26/10:05pm 9.9 3.3 4.1 67 2.6 WNW 28 48 15 26 1004.1 1003.8 1.4
26/10:00pm 9.8 4.9 4.0 67 2.6 WNW 19 39 10 21 1004.1 1003.8 1.4
26/09:30pm 9.9 5.3 3.6 65 2.8 WNW 17 37 9 20 1004.1 1003.8 1.4
26/09:00pm 10.3 6.7 2.9 60 3.3 NNW 11 35 6 19 1003.7 1003.3 1.4
26/08:30pm 10.1 7.3 3.4 63 3.0 N 7 30 4 16 1003.7 1003.3 1.4
26/08:00pm 10.1 5.2 5.3 72 2.2 SW 20 41 11 22 1003.4 1003.0 1.4
26/07:30pm 10.4 5.2 5.6 72 2.2 SW 22 56 12 30 1003.2 1002.8 1.4
26/07:00pm 11.0 4.7 3.5 60 3.4 WSW 26 54 14 29 1002.9 1002.5 1.4
26/06:30pm 11.7 5.8 5.8 67 2.8 SW 26 63 14 34 1002.5 1002.1 1.4
26/06:24pm 11.1 5.5 5.2 67 2.7 SW 24 48 13 26 1002.5 1002.1 1.4
26/06:00pm 11.2 6.0 5.3 67 2.8 WSW 22 52 12 28 1002.6 1002.2 1.4
26/05:30pm 11.7 6.5 5.6 66 2.9 SW 22 54 12 29 1002.3 1001.9 1.4
26/05:01pm 11.7 4.9 4.9 63 3.1 WSW 30 63 16 34 1001.7 1001.3 1.4
26/05:00pm 11.8 5.8 5.2 64 3.1 WSW 26 63 14 34 1001.8 1001.4 1.4
26/04:40pm 11.4 4.7 3.9 60 3.4 WSW 28 72 15 39 1001.6 1001.2 1.4
26/04:30pm 11.1 5.1 3.2 58 3.5 WSW 24 57 13 31 1001.5 1001.1 1.4
26/04:00pm 12.2 5.7 4.9 61 3.4 SW 28 61 15 33 1001.2 1000.9 1.4
26/03:30pm 11.8 4.5 4.3 60 3.4 SW 32 67 17 36 1000.7 1000.4 1.4
26/03:01pm 12.0 5.6 5.0 62 3.3 SW 28 56 15 30 1000.5 1000.2 1.4
26/03:00pm 12.6 6.7 6.0 64 3.2 SW 26 54 14 29 1000.4 1000.1 1.4
26/02:32pm 12.3 5.7 4.3 58 3.7 SW 28 56 15 30 1000.1 999.7 1.4
26/02:30pm 12.2 6.2 5.1 62 3.3 SW 26 56 14 30 1000.1 999.7 1.4
26/02:00pm 10.9 5.5 6.3 73 2.2 SW 24 56 13 30 999.9 999.5 1.4
26/01:30pm 10.5 5.2 6.6 77 1.9 SW 24 52 13 28 999.3 998.9 1.4
26/01:29pm 10.5 5.3 7.2 80 1.6 SW 24 52 13 28 999.3 998.9 1.4
26/01:00pm 8.7 3.4 6.7 87 0.9 SW 24 61 13 33 999.0 998.6 1.2
26/12:54pm 8.5 -0.2 6.0 84 1.2 SW 41 70 22 38 999.2 998.8 1.2
26/12:42pm 9.0 3.2 6.3 83 1.3 SW 26 72 14 39 998.9 998.5 0.6
26/12:30pm 10.7 6.6 6.1 73 2.2 WSW 17 44 9 24 998.8 998.4 0.6
26/12:00pm 10.3 5.7 5.5 72 2.2 WSW 19 50 10 27 998.8 998.4 0.6
26/11:30am 10.1 6.7 6.1 76 1.9 W 13 41 7 22 998.6 998.2 0.6
26/11:00am 9.8 6.9 6.3 79 1.7 NNW 11 37 6 20 998.8 998.4 0.6
26/10:30am 9.4 4.9 6.1 80 1.5 WSW 19 41 10 22 998.2 997.8 0.6
26/10:00am 9.3 4.8 6.2 81 1.5 WSW 19 46 10 25 998.4 998.0 0.6
26/09:30am 8.8 3.2 7.1 89 0.8 WSW 26 52 14 28 998.5 998.1 0.6
26/09:20am 9.1 3.3 7.9 92 0.6 SW 28 57 15 31 998.3 997.9 0.4
26/09:00am 8.8 3.8 8.2 96 0.3 WSW 24 57 13 31 998.3 997.9 -
26/08:30am 8.4 2.1 7.3 93 0.5 SW 30 61 16 33 998.4 998.0 -
26/08:00am 8.7 -0.8 8.3 97 0.2 SW 48 72 26 39 998.1 997.7 -
26/07:30am 8.9 0.3 8.1 95 0.4 SW 43 69 23 37 998.3 997.9 -
26/07:07am 8.8 3.2 8.7 99 0.0 SW 28 65 15 35 997.9 997.5 -
26/07:00am 8.9 3.7 8.8 99 0.0 SW 26 56 14 30 997.9 997.5 -
26/06:30am 9.8 3.4 9.5 98 0.2 SSW 33 67 18 36 997.4 997.0 -
26/06:00am 10.7 4.3 9.5 92 0.6 SSW 33 69 18 37 996.9 996.6 -
26/05:46am 11.8 7.0 8.8 82 1.5 WSW 24 54 13 29 996.9 996.6 -
26/05:30am 14.9 8.4 6.5 57 4.1 NW 30 39 16 21 996.7 996.4 -
26/05:00am 15.1 8.0 6.4 56 4.3 NW 33 46 18 25 996.8 996.5 -
26/04:46am 15.1 7.9 6.1 55 4.4 NW 33 52 18 28 996.8 996.5 -
26/04:30am 15.2 8.2 6.2 55 4.4 NW 32 46 17 25 997.1 996.7 -
26/04:00am 15.3 7.8 6.3 55 4.4 NW 35 52 19 28 997.5 997.1 -
26/03:46am 15.4 7.1 6.2 54 4.5 NW 39 57 21 31 997.6 997.2 -
26/03:30am 15.6 6.9 6.1 53 4.6 WNW 41 57 22 31 997.9 997.5 -
26/03:00am 15.7 7.6 7.0 56 4.4 NW 39 52 21 28 998.3 997.9 0.0

Latest Capital City Observations: Canberra | Sydney | Melbourne | Brisbane | Adelaide | Perth | Hobart | Darwin

Other formats

Comma delimited format used in spreadsheet applications
http://www.bom.gov.au/fwo/IDT60901/IDT60901.95986.axf

JavaScript Object Notation format (JSON) in row-major order
http://www.bom.gov.au/fwo/IDT60901/IDT60901.95986.json

Data quality

Most of these data are generated automatically and are frequently updated. Quality checks on data are not normally performed. It is possible for incorrect values to appear. Refer to information at About Latest Weather Observations and please check the disclaimer before using these data.